createdAt,value
2023-05-15T00:02:24.879Z,11.90
2023-05-15T00:04:51.732Z,11.80
2023-05-15T00:07:18.755Z,11.80
2023-05-15T00:09:45.590Z,11.80
2023-05-15T00:12:12.341Z,11.80
2023-05-15T00:14:39.196Z,11.80
2023-05-15T00:17:06.382Z,11.80
2023-05-15T00:19:33.204Z,11.80
2023-05-15T00:21:59.935Z,11.80
2023-05-15T00:24:26.686Z,11.80
2023-05-15T00:26:53.462Z,11.70
2023-05-15T00:29:20.309Z,11.60
2023-05-15T00:31:47.184Z,11.60
2023-05-15T00:34:13.946Z,11.60
2023-05-15T00:36:40.764Z,11.60
2023-05-15T00:39:07.579Z,11.50
2023-05-15T00:41:35.519Z,11.40
2023-05-15T00:44:03.062Z,11.30
2023-05-15T00:46:32.516Z,11.30
2023-05-15T00:49:00.588Z,11.20
2023-05-15T00:51:27.416Z,11.10
2023-05-15T00:53:54.994Z,11.10
2023-05-15T00:56:22.326Z,11.10
2023-05-15T00:58:53.970Z,11.10
2023-05-15T01:01:20.822Z,11.10
2023-05-15T01:03:47.817Z,11.10
2023-05-15T01:06:14.652Z,11.20
2023-05-15T01:08:46.875Z,11.10
2023-05-15T01:11:15.626Z,11.20
2023-05-15T01:13:42.942Z,11.20
2023-05-15T01:16:10.859Z,11.20
2023-05-15T01:21:36.793Z,11.20
2023-05-15T01:24:15.686Z,11.30
2023-05-15T01:27:21.561Z,11.30
2023-05-15T01:30:16.647Z,11.20
2023-05-15T01:33:06.979Z,11.20
2023-05-15T01:35:55.071Z,11.20
2023-05-15T01:38:33.498Z,11.20
2023-05-15T01:41:23.120Z,11.30
2023-05-15T01:43:56.909Z,11.30
2023-05-15T01:46:25.610Z,11.20
2023-05-15T01:48:53.459Z,11.20
2023-05-15T01:51:22.346Z,11.20
2023-05-15T01:53:50.461Z,11.20
2023-05-15T01:56:19.927Z,11.10
2023-05-15T01:58:48.244Z,11.20
2023-05-15T02:01:17.807Z,11.20
2023-05-15T02:03:46.204Z,11.20
2023-05-15T02:06:14.168Z,11.20
2023-05-15T02:08:42.914Z,11.20
2023-05-15T02:11:10.352Z,11.30
2023-05-15T02:13:38.286Z,11.30
2023-05-15T02:16:05.485Z,11.40
2023-05-15T02:18:32.473Z,11.40
2023-05-15T02:21:01.122Z,11.50
2023-05-15T02:23:27.868Z,11.50
2023-05-15T02:26:16.727Z,11.50
2023-05-15T02:28:50.282Z,11.50
2023-05-15T02:31:40.956Z,11.50
2023-05-15T02:34:32.737Z,11.50
2023-05-15T02:37:01.873Z,11.50
2023-05-15T02:39:30.029Z,11.50
2023-05-15T02:41:57.363Z,11.50
2023-05-15T02:44:26.125Z,11.50
2023-05-15T02:46:54.082Z,11.50
2023-05-15T02:49:22.015Z,11.50
2023-05-15T02:51:48.901Z,11.50
2023-05-15T02:54:15.830Z,11.50
2023-05-15T02:56:42.812Z,11.60
2023-05-15T02:59:09.695Z,11.60
2023-05-15T03:01:36.490Z,11.60
2023-05-15T03:04:03.490Z,11.60
2023-05-15T03:06:31.647Z,11.60
2023-05-15T03:08:58.409Z,11.60
2023-05-15T03:11:25.218Z,11.60
2023-05-15T03:13:52.041Z,11.50
2023-05-15T03:16:18.850Z,11.60
2023-05-15T03:18:46.481Z,11.50
2023-05-15T03:21:13.553Z,11.50
2023-05-15T03:23:40.501Z,11.50
2023-05-15T03:26:07.359Z,11.50
2023-05-15T03:28:34.113Z,11.50
2023-05-15T03:31:00.916Z,11.40
2023-05-15T03:33:27.685Z,11.40
2023-05-15T03:35:54.421Z,11.40
2023-05-15T03:38:21.250Z,11.30
2023-05-15T03:40:50.262Z,11.30
2023-05-15T03:43:17.825Z,11.20
2023-05-15T03:45:44.582Z,11.20
2023-05-15T03:48:11.343Z,11.20
2023-05-15T03:50:39.189Z,11.20
2023-05-15T03:53:06.182Z,11.10
2023-05-15T03:55:33.175Z,11.10
2023-05-15T03:58:00.076Z,11.20
2023-05-15T04:00:27.133Z,11.10
2023-05-15T04:02:54.127Z,11.10
2023-05-15T04:05:21.995Z,11.10
2023-05-15T04:07:48.899Z,11.00
2023-05-15T04:10:15.714Z,11.00
2023-05-15T04:12:42.491Z,11.00
2023-05-15T04:15:18.392Z,11.00
2023-05-15T04:17:46.777Z,10.90
2023-05-15T04:20:15.447Z,10.90
2023-05-15T04:22:43.508Z,10.80
2023-05-15T04:25:12.025Z,10.80
2023-05-15T04:27:39.339Z,10.80
2023-05-15T04:30:07.125Z,10.80
2023-05-15T04:32:34.714Z,10.80
2023-05-15T04:35:05.694Z,10.80
2023-05-15T04:37:32.626Z,10.80
2023-05-15T04:40:00.169Z,10.70
2023-05-15T04:42:27.018Z,10.70
2023-05-15T04:44:53.917Z,10.70
2023-05-15T04:47:20.842Z,10.70
2023-05-15T04:49:50.608Z,10.80
2023-05-15T04:52:17.868Z,10.80
2023-05-15T04:54:44.611Z,10.80
2023-05-15T04:57:11.353Z,10.90
2023-05-15T04:59:38.088Z,11.00
2023-05-15T05:02:05.111Z,11.10
2023-05-15T05:04:31.949Z,11.10
2023-05-15T05:06:58.718Z,11.20
2023-05-15T05:09:25.635Z,11.40
2023-05-15T05:11:52.377Z,11.50
2023-05-15T05:14:19.647Z,11.60
2023-05-15T05:16:46.447Z,11.80
2023-05-15T05:19:13.325Z,12.00
2023-05-15T05:21:40.170Z,12.10
2023-05-15T05:24:06.956Z,12.20
2023-05-15T05:26:33.783Z,12.20
2023-05-15T05:29:00.833Z,12.30
2023-05-15T05:31:30.406Z,12.30
2023-05-15T05:33:57.266Z,12.30
2023-05-15T05:36:24.051Z,12.30
2023-05-15T05:38:51.040Z,12.40
2023-05-15T05:41:17.783Z,12.50
2023-05-15T05:43:44.570Z,12.50
2023-05-15T05:46:11.464Z,12.60
2023-05-15T05:48:38.265Z,12.70
2023-05-15T05:51:05.117Z,12.80
2023-05-15T05:53:31.943Z,12.90
2023-05-15T05:55:58.714Z,13.00
2023-05-15T05:58:26.444Z,13.10
2023-05-15T06:00:54.201Z,13.20
2023-05-15T06:03:21.526Z,13.40
2023-05-15T06:05:48.721Z,13.70
2023-05-15T06:08:15.764Z,14.00
2023-05-15T06:10:42.537Z,14.30
2023-05-15T06:13:10.483Z,14.50
2023-05-15T06:15:37.664Z,14.90
2023-05-15T06:18:04.642Z,15.20
2023-05-15T06:20:33.679Z,15.50
2023-05-15T06:23:00.572Z,15.70
2023-05-15T06:25:27.317Z,16.00
2023-05-15T06:27:54.032Z,16.10
2023-05-15T06:30:20.723Z,16.50
2023-05-15T06:32:47.566Z,16.40
2023-05-15T06:35:14.335Z,16.10
2023-05-15T06:37:41.029Z,15.90
2023-05-15T06:40:08.460Z,15.80
2023-05-15T06:42:35.539Z,16.00
2023-05-15T06:45:02.345Z,16.50
2023-05-15T06:47:29.135Z,16.80
2023-05-15T06:49:55.996Z,16.70
2023-05-15T06:52:22.853Z,16.80
2023-05-15T06:54:49.688Z,17.30
2023-05-15T06:57:16.480Z,17.70
2023-05-15T06:59:43.296Z,17.70
2023-05-15T07:02:10.134Z,18.20
2023-05-15T07:04:36.996Z,18.60
2023-05-15T07:07:03.857Z,18.70
2023-05-15T07:09:31.039Z,18.80
2023-05-15T07:11:57.836Z,19.20
2023-05-15T07:14:24.635Z,19.40
2023-05-15T07:16:51.466Z,19.60
2023-05-15T07:19:20.863Z,19.80
2023-05-15T07:21:47.889Z,19.80
2023-05-15T07:24:14.758Z,20.00
2023-05-15T07:26:50.620Z,20.20
2023-05-15T07:29:25.333Z,20.20
2023-05-15T07:31:52.228Z,20.30
2023-05-15T07:34:19.096Z,20.70
2023-05-15T07:36:45.917Z,21.20
2023-05-15T07:39:13.287Z,20.80
2023-05-15T07:41:40.149Z,20.80
2023-05-15T07:44:06.967Z,21.30
2023-05-15T07:46:34.458Z,20.90
2023-05-15T07:49:01.255Z,21.30
2023-05-15T07:51:28.028Z,21.50
2023-05-15T07:53:54.767Z,21.70
2023-05-15T07:56:21.602Z,20.70
2023-05-15T07:58:48.631Z,20.50
2023-05-15T08:01:16.066Z,20.10
2023-05-15T08:03:43.145Z,20.30
2023-05-15T08:06:09.953Z,20.50
2023-05-15T08:08:36.831Z,20.80
2023-05-15T08:11:03.623Z,21.00
2023-05-15T08:13:30.590Z,21.20
2023-05-15T08:15:57.432Z,22.00
2023-05-15T08:18:24.408Z,22.40
2023-05-15T08:20:52.231Z,22.50
2023-05-15T08:23:19.171Z,22.70
2023-05-15T08:25:46.129Z,22.20
2023-05-15T08:28:12.931Z,21.80
2023-05-15T08:30:39.790Z,21.90
2023-05-15T08:33:06.765Z,21.90
2023-05-15T08:35:33.827Z,22.30
2023-05-15T08:38:00.770Z,22.50
2023-05-15T08:43:03.660Z,23.00
2023-05-15T08:45:31.558Z,23.20
2023-05-15T08:48:00.486Z,23.50
2023-05-15T08:50:28.645Z,24.50
2023-05-15T08:52:58.390Z,24.50
2023-05-15T08:55:25.869Z,24.40
2023-05-15T08:57:54.425Z,25.00
2023-05-15T09:00:22.411Z,25.20
2023-05-15T09:02:49.317Z,25.90
2023-05-15T09:05:16.180Z,25.60
2023-05-15T09:07:44.966Z,25.60
2023-05-15T09:10:13.605Z,26.80
2023-05-15T09:12:47.129Z,27.40
2023-05-15T09:15:22.555Z,26.40
2023-05-15T09:17:50.723Z,26.60
2023-05-15T09:20:33.687Z,26.70
2023-05-15T09:23:02.927Z,27.20
2023-05-15T09:25:40.767Z,27.60
2023-05-15T09:28:10.686Z,27.00
2023-05-15T09:30:38.835Z,27.60
2023-05-15T09:33:05.791Z,28.20
2023-05-15T09:35:40.956Z,28.40
2023-05-15T09:38:12.624Z,28.70
2023-05-15T09:40:40.929Z,28.00
2023-05-15T09:43:11.704Z,28.20
2023-05-15T09:45:38.553Z,27.80
2023-05-15T09:48:06.740Z,28.20
2023-05-15T09:50:38.319Z,27.80
2023-05-15T09:53:05.992Z,29.10
2023-05-15T09:55:34.516Z,29.00
2023-05-15T09:58:09.814Z,28.20
2023-05-15T10:00:48.423Z,28.50
2023-05-15T10:03:19.058Z,28.90
2023-05-15T10:05:46.020Z,28.80
2023-05-15T10:08:13.038Z,29.00
2023-05-15T10:10:39.936Z,28.70
2023-05-15T10:13:08.263Z,29.00
2023-05-15T10:15:35.647Z,29.20
2023-05-15T10:18:04.981Z,29.80
2023-05-15T10:20:35.581Z,29.40
2023-05-15T10:23:06.317Z,30.10
2023-05-15T10:25:41.202Z,30.40
2023-05-15T10:28:08.973Z,30.60
2023-05-15T10:30:36.693Z,30.70
2023-05-15T10:33:05.444Z,29.50
2023-05-15T10:35:32.905Z,28.90
2023-05-15T10:38:00.437Z,28.70
2023-05-15T10:40:29.338Z,28.30
2023-05-15T10:42:59.516Z,28.10
2023-05-15T10:45:27.070Z,27.80
2023-05-15T10:47:54.905Z,27.40
2023-05-15T10:50:21.747Z,27.30
2023-05-15T10:52:52.459Z,27.50
2023-05-15T10:55:19.514Z,27.30
2023-05-15T10:57:47.389Z,27.30
2023-05-15T11:00:24.057Z,27.60
2023-05-15T11:02:57.013Z,27.40
2023-05-15T11:05:24.621Z,26.60
2023-05-15T11:08:18.374Z,25.60
2023-05-15T11:10:45.271Z,25.00
2023-05-15T11:13:12.200Z,24.70
2023-05-15T11:15:46.948Z,25.50
2023-05-15T11:18:14.488Z,25.80
2023-05-15T11:21:02.671Z,25.60
2023-05-15T11:23:37.457Z,25.90
2023-05-15T11:26:05.969Z,27.20
2023-05-15T11:28:42.521Z,26.50
2023-05-15T11:31:09.440Z,26.70
2023-05-15T11:33:38.684Z,27.50
2023-05-15T11:36:06.960Z,28.00
2023-05-15T11:38:39.668Z,28.80
2023-05-15T11:41:18.642Z,28.90
2023-05-15T11:43:46.212Z,28.20
2023-05-15T11:46:14.067Z,28.00
2023-05-15T11:48:47.612Z,29.70
2023-05-15T11:51:21.791Z,30.10
2023-05-15T11:53:54.129Z,30.40
2023-05-15T11:56:22.971Z,30.80
2023-05-15T11:58:58.763Z,30.50
2023-05-15T12:01:26.133Z,30.00
2023-05-15T12:03:54.426Z,30.50
2023-05-15T12:06:22.045Z,30.30
2023-05-15T12:08:53.355Z,29.70
2023-05-15T12:11:24.836Z,28.90
2023-05-15T12:13:55.675Z,27.20
2023-05-15T12:16:26.608Z,26.70
2023-05-15T12:18:53.792Z,26.30
2023-05-15T12:21:20.885Z,26.10
2023-05-15T12:24:07.054Z,25.50
2023-05-15T12:26:35.050Z,24.80
2023-05-15T12:29:02.217Z,24.30
2023-05-15T12:31:29.784Z,23.60
2023-05-15T12:33:56.966Z,23.00
2023-05-15T12:36:23.716Z,22.30
2023-05-15T12:38:50.644Z,21.30
2023-05-15T12:41:19.942Z,20.10
2023-05-15T12:43:46.722Z,19.20
2023-05-15T12:46:15.459Z,18.40
2023-05-15T12:48:42.434Z,17.80
2023-05-15T12:51:09.459Z,17.40
2023-05-15T12:53:39.704Z,17.10
2023-05-15T12:56:07.726Z,16.90
2023-05-15T12:58:35.492Z,16.70
2023-05-15T13:01:03.466Z,16.50
2023-05-15T13:03:31.930Z,16.40
2023-05-15T13:05:58.964Z,16.30
2023-05-15T13:08:25.891Z,16.10
2023-05-15T13:11:00.066Z,16.00
2023-05-15T13:13:47.869Z,15.80
2023-05-15T13:16:29.454Z,15.80
2023-05-15T13:18:59.823Z,15.80
2023-05-15T13:21:26.576Z,15.80
2023-05-15T13:23:53.482Z,15.80
2023-05-15T13:26:20.772Z,15.80
2023-05-15T13:28:47.631Z,15.80
2023-05-15T13:31:14.532Z,15.60
2023-05-15T13:33:41.736Z,15.60
2023-05-15T13:36:08.996Z,15.70
2023-05-15T13:38:35.828Z,15.60
2023-05-15T13:41:03.612Z,15.60
2023-05-15T13:43:30.438Z,15.60
2023-05-15T13:45:57.223Z,15.50
2023-05-15T13:48:23.955Z,15.50
2023-05-15T13:50:51.090Z,15.50
2023-05-15T13:53:18.169Z,15.50
2023-05-15T13:55:45.825Z,15.60
2023-05-15T13:58:13.394Z,15.60
2023-05-15T14:00:42.437Z,15.70
2023-05-15T14:03:09.625Z,15.80
2023-05-15T14:05:37.236Z,16.00
2023-05-15T14:08:04.430Z,16.10
2023-05-15T14:10:31.386Z,16.30
2023-05-15T14:13:00.083Z,16.60
2023-05-15T14:15:27.618Z,16.80
2023-05-15T14:17:54.416Z,17.00
2023-05-15T14:20:21.230Z,17.20
2023-05-15T14:22:48.009Z,17.50
2023-05-15T14:25:14.840Z,17.70
2023-05-15T14:27:41.613Z,17.90
2023-05-15T14:30:09.152Z,18.10
2023-05-15T14:32:36.036Z,18.20
2023-05-15T14:35:03.109Z,18.40
2023-05-15T14:37:29.913Z,18.50
2023-05-15T14:39:56.765Z,18.70
2023-05-15T14:42:23.585Z,19.00
2023-05-15T14:44:50.728Z,19.30
2023-05-15T14:47:18.525Z,19.60
2023-05-15T14:49:45.275Z,19.90
2023-05-15T14:52:12.366Z,20.10
2023-05-15T14:54:39.979Z,20.60
2023-05-15T14:57:07.697Z,20.90
2023-05-15T14:59:34.772Z,21.10
2023-05-15T15:02:01.831Z,21.40
2023-05-15T15:04:33.930Z,21.50
2023-05-15T15:07:03.804Z,21.50
2023-05-15T15:09:30.891Z,21.70
2023-05-15T15:11:57.736Z,21.90
2023-05-15T15:14:24.496Z,22.10
2023-05-15T15:16:51.297Z,22.10
2023-05-15T15:19:20.131Z,22.30
2023-05-15T15:21:47.275Z,22.10
2023-05-15T15:24:14.130Z,22.20
2023-05-15T15:26:41.296Z,22.40
2023-05-15T15:29:08.145Z,22.30
2023-05-15T15:31:34.990Z,22.10
2023-05-15T15:34:04.415Z,22.00
2023-05-15T15:36:32.458Z,21.90
2023-05-15T15:38:59.200Z,22.10
2023-05-15T15:41:25.975Z,22.00
2023-05-15T15:43:53.736Z,22.20
2023-05-15T15:46:20.696Z,22.40
2023-05-15T15:48:48.196Z,22.60
2023-05-15T15:51:14.978Z,22.70
2023-05-15T15:53:41.763Z,22.70
2023-05-15T15:56:08.844Z,22.90
2023-05-15T15:58:35.801Z,23.00
2023-05-15T16:01:03.239Z,23.00
2023-05-15T16:03:31.060Z,23.00
2023-05-15T16:05:59.909Z,23.00
2023-05-15T16:08:27.234Z,23.10
2023-05-15T16:10:55.514Z,23.10
2023-05-15T16:13:22.391Z,23.10
2023-05-15T16:15:49.257Z,23.10
2023-05-15T16:18:16.653Z,23.00
2023-05-15T16:20:43.782Z,22.60
2023-05-15T16:23:14.091Z,22.60
2023-05-15T16:25:41.376Z,22.10
2023-05-15T16:28:09.916Z,21.80
2023-05-15T16:30:47.994Z,21.60
2023-05-15T16:33:17.460Z,21.60
2023-05-15T16:35:44.671Z,21.40
2023-05-15T16:38:11.628Z,21.10
2023-05-15T16:40:38.400Z,21.00
2023-05-15T16:43:05.694Z,20.90
2023-05-15T16:45:32.677Z,20.90
2023-05-15T16:47:59.438Z,20.70
2023-05-15T16:50:26.672Z,20.60
2023-05-15T16:52:53.699Z,20.50
2023-05-15T16:55:20.559Z,20.30
2023-05-15T16:57:47.788Z,20.20
2023-05-15T17:00:15.965Z,20.00
2023-05-15T17:02:43.815Z,19.80
2023-05-15T17:05:11.532Z,19.70
2023-05-15T17:07:39.035Z,19.60
2023-05-15T17:10:07.130Z,19.40
2023-05-15T17:12:34.811Z,19.20
2023-05-15T17:15:02.543Z,19.00
2023-05-15T17:17:29.405Z,18.80
2023-05-15T17:19:57.166Z,18.60
2023-05-15T17:22:24.336Z,18.50
2023-05-15T17:24:52.172Z,18.40
2023-05-15T17:27:19.672Z,18.30
2023-05-15T17:29:46.747Z,18.20
2023-05-15T17:32:13.902Z,18.10
2023-05-15T17:35:19.512Z,18.00
2023-05-15T17:37:46.298Z,17.90
2023-05-15T17:40:13.168Z,17.80
2023-05-15T17:42:39.986Z,17.70
2023-05-15T17:45:07.224Z,17.70
2023-05-15T17:47:34.033Z,17.60
2023-05-15T17:50:00.862Z,17.60
2023-05-15T17:52:27.746Z,17.50
2023-05-15T17:54:54.558Z,17.50
2023-05-15T17:57:21.346Z,17.40
2023-05-15T17:59:48.172Z,17.40
2023-05-15T18:02:14.988Z,17.30
2023-05-15T18:04:41.758Z,17.30
2023-05-15T18:07:08.556Z,17.20
2023-05-15T18:09:35.410Z,17.20
2023-05-15T18:12:02.202Z,17.10
2023-05-15T18:14:28.950Z,17.10
2023-05-15T18:16:56.263Z,17.10
2023-05-15T18:19:23.068Z,17.00
2023-05-15T18:21:50.286Z,17.00
2023-05-15T18:24:17.162Z,16.90
2023-05-15T18:26:44.172Z,16.80
2023-05-15T18:29:10.994Z,16.80
2023-05-15T18:31:37.771Z,16.80
2023-05-15T18:34:04.559Z,16.70
2023-05-15T18:36:31.313Z,16.70
2023-05-15T18:38:58.072Z,16.60
2023-05-15T18:41:24.803Z,16.50
2023-05-15T18:43:52.333Z,16.50
2023-05-15T18:46:19.140Z,16.40
2023-05-15T18:48:45.910Z,16.40
2023-05-15T18:51:12.732Z,16.30
2023-05-15T18:53:39.462Z,16.30
2023-05-15T18:56:06.331Z,16.30
2023-05-15T18:58:33.074Z,16.20
2023-05-15T19:01:00.168Z,16.20
2023-05-15T19:03:27.111Z,16.20
2023-05-15T19:05:53.896Z,16.20
2023-05-15T19:08:20.625Z,16.10
2023-05-15T19:10:51.099Z,16.10
2023-05-15T19:13:18.854Z,16.10
2023-05-15T19:15:52.415Z,16.00
2023-05-15T19:18:19.685Z,16.00
2023-05-15T19:20:50.484Z,16.00
2023-05-15T19:23:17.489Z,15.90
2023-05-15T19:25:45.067Z,15.90
2023-05-15T19:28:12.946Z,15.80
2023-05-15T19:30:39.726Z,15.80
2023-05-15T19:33:06.504Z,15.70
2023-05-15T19:35:35.875Z,15.70
2023-05-15T19:38:04.038Z,15.70
2023-05-15T19:40:30.747Z,15.70
2023-05-15T19:42:57.580Z,15.60
2023-05-15T19:45:24.403Z,15.60
2023-05-15T19:47:51.212Z,15.60
2023-05-15T19:50:18.669Z,15.60
2023-05-15T19:52:45.761Z,15.50
2023-05-15T19:55:12.807Z,15.50
2023-05-15T19:57:44.789Z,15.40
2023-05-15T20:00:12.522Z,15.40
2023-05-15T20:02:41.311Z,15.30
2023-05-15T20:05:08.806Z,15.30
2023-05-15T20:07:36.022Z,15.20
2023-05-15T20:10:02.805Z,15.10
2023-05-15T20:12:29.597Z,15.10
2023-05-15T20:14:56.299Z,15.00
2023-05-15T20:17:23.340Z,15.00
2023-05-15T20:19:50.901Z,15.00
2023-05-15T20:22:17.797Z,15.00
2023-05-15T20:24:45.801Z,14.90
2023-05-15T20:27:12.624Z,14.90
2023-05-15T20:29:39.394Z,14.90
2023-05-15T20:32:06.497Z,14.90
2023-05-15T20:34:34.396Z,14.80
2023-05-15T20:37:02.673Z,14.80
2023-05-15T20:39:29.409Z,14.70
2023-05-15T20:41:56.554Z,14.70
2023-05-15T20:44:23.322Z,14.60
2023-05-15T20:46:50.185Z,14.50
2023-05-15T20:49:16.939Z,14.50
2023-05-15T20:51:44.508Z,14.40
2023-05-15T20:54:11.501Z,14.30
2023-05-15T20:56:38.409Z,14.30
2023-05-15T20:59:05.166Z,14.20
2023-05-15T21:01:32.261Z,14.10
2023-05-15T21:03:59.130Z,14.00
2023-05-15T21:06:25.949Z,14.00
2023-05-15T21:08:52.849Z,13.90
2023-05-15T21:11:19.688Z,13.90
2023-05-15T21:13:46.505Z,13.90
2023-05-15T21:16:13.291Z,13.90
2023-05-15T21:18:40.146Z,13.90
2023-05-15T21:21:09.657Z,13.90
2023-05-15T21:23:36.740Z,13.90
2023-05-15T21:26:03.942Z,13.80
2023-05-15T21:28:30.837Z,13.80
2023-05-15T21:30:57.649Z,13.70
2023-05-15T21:33:24.601Z,13.80
2023-05-15T21:35:51.523Z,13.70
2023-05-15T21:38:18.693Z,13.70
2023-05-15T21:40:45.446Z,13.70
2023-05-15T21:43:12.206Z,13.60
2023-05-15T21:45:39.020Z,13.60
2023-05-15T21:48:05.979Z,13.60
2023-05-15T21:50:32.802Z,13.50
2023-05-15T21:52:59.925Z,13.50
2023-05-15T21:55:26.637Z,13.40
2023-05-15T21:57:53.390Z,13.30
2023-05-15T22:00:20.867Z,13.20
2023-05-15T22:02:47.766Z,13.20
2023-05-15T22:05:14.869Z,13.10
2023-05-15T22:07:41.847Z,13.00
2023-05-15T22:10:09.258Z,13.00
2023-05-15T22:12:36.148Z,12.90
2023-05-15T22:15:02.958Z,12.90
2023-05-15T22:17:30.474Z,12.80
2023-05-15T22:20:08.139Z,12.70
2023-05-15T22:22:35.911Z,12.70
2023-05-15T22:25:02.793Z,12.60
2023-05-15T22:27:29.698Z,12.60
2023-05-15T22:29:56.495Z,12.50
2023-05-15T22:32:23.496Z,12.50
2023-05-15T22:34:50.294Z,12.40
2023-05-15T22:37:17.012Z,12.40
2023-05-15T22:39:44.164Z,12.40
2023-05-15T22:42:11.001Z,12.30
2023-05-15T22:44:37.884Z,12.30
2023-05-15T22:47:04.949Z,12.30
2023-05-15T22:49:31.757Z,12.30
2023-05-15T22:51:58.678Z,12.20
2023-05-15T22:54:25.610Z,12.20
2023-05-15T22:56:53.632Z,12.20
2023-05-15T22:59:21.202Z,12.20
2023-05-15T23:01:49.170Z,12.20
2023-05-15T23:04:17.444Z,12.20
2023-05-15T23:06:44.502Z,12.10
2023-05-15T23:09:11.696Z,12.10
2023-05-15T23:11:38.755Z,12.10
2023-05-15T23:14:05.710Z,12.10
2023-05-15T23:16:32.613Z,12.10
2023-05-15T23:18:59.673Z,12.20
2023-05-15T23:21:28.491Z,12.10
2023-05-15T23:23:55.310Z,12.20
2023-05-15T23:26:22.103Z,12.10
2023-05-15T23:28:48.832Z,12.10
2023-05-15T23:31:15.758Z,12.10
2023-05-15T23:33:42.654Z,12.10
2023-05-15T23:36:09.483Z,12.10
2023-05-15T23:38:36.288Z,12.10
2023-05-15T23:41:03.635Z,12.10
2023-05-15T23:43:30.434Z,12.20
2023-05-15T23:45:57.221Z,12.10
2023-05-15T23:48:23.992Z,12.20
2023-05-15T23:50:52.293Z,12.20
2023-05-15T23:53:19.274Z,12.20
2023-05-15T23:55:46.086Z,12.30
2023-05-15T23:58:12.910Z,12.30
